sensor_id;sensor_type;location;lat;lon;timestamp;P1;durP1;ratioP1;P2;durP2;ratioP2
1048;SDS011;513;51.444;7.196;2022-08-16T00:01:14;7.03;;;4.90;;
1048;SDS011;513;51.444;7.196;2022-08-16T00:03:42;6.73;;;4.73;;
1048;SDS011;513;51.444;7.196;2022-08-16T00:06:09;7.70;;;4.90;;
1048;SDS011;513;51.444;7.196;2022-08-16T00:08:36;4.80;;;4.20;;
1048;SDS011;513;51.444;7.196;2022-08-16T00:11:04;5.53;;;4.67;;
1048;SDS011;513;51.444;7.196;2022-08-16T00:13:31;5.13;;;4.20;;
1048;SDS011;513;51.444;7.196;2022-08-16T00:15:58;6.90;;;4.60;;
1048;SDS011;513;51.444;7.196;2022-08-16T00:18:25;6.47;;;4.57;;
1048;SDS011;513;51.444;7.196;2022-08-16T00:20:52;5.90;;;4.53;;
1048;SDS011;513;51.444;7.196;2022-08-16T00:23:19;5.27;;;4.67;;
1048;SDS011;513;51.444;7.196;2022-08-16T00:25:45;4.83;;;4.27;;
1048;SDS011;513;51.444;7.196;2022-08-16T00:28:13;5.47;;;4.20;;
1048;SDS011;513;51.444;7.196;2022-08-16T00:30:40;5.90;;;4.60;;
1048;SDS011;513;51.444;7.196;2022-08-16T00:33:07;6.20;;;4.47;;
1048;SDS011;513;51.444;7.196;2022-08-16T00:35:35;6.70;;;4.40;;
1048;SDS011;513;51.444;7.196;2022-08-16T00:38:03;7.27;;;4.70;;
1048;SDS011;513;51.444;7.196;2022-08-16T00:40:33;4.80;;;4.30;;
1048;SDS011;513;51.444;7.196;2022-08-16T00:43:03;5.73;;;4.67;;
1048;SDS011;513;51.444;7.196;2022-08-16T00:45:35;5.27;;;4.77;;
1048;SDS011;513;51.444;7.196;2022-08-16T00:48:10;6.87;;;5.00;;
1048;SDS011;513;51.444;7.196;2022-08-16T00:50:40;4.83;;;4.43;;
1048;SDS011;513;51.444;7.196;2022-08-16T00:53:11;5.63;;;4.80;;
1048;SDS011;513;51.444;7.196;2022-08-16T00:55:40;6.80;;;4.37;;
1048;SDS011;513;51.444;7.196;2022-08-16T00:58:11;5.30;;;4.70;;
1048;SDS011;513;51.444;7.196;2022-08-16T01:00:41;5.10;;;4.60;;
1048;SDS011;513;51.444;7.196;2022-08-16T01:03:09;6.93;;;4.80;;
1048;SDS011;513;51.444;7.196;2022-08-16T01:05:37;5.43;;;4.87;;
1048;SDS011;513;51.444;7.196;2022-08-16T01:08:05;5.40;;;4.80;;
1048;SDS011;513;51.444;7.196;2022-08-16T01:10:34;5.43;;;4.50;;
1048;SDS011;513;51.444;7.196;2022-08-16T01:13:04;6.73;;;4.50;;
1048;SDS011;513;51.444;7.196;2022-08-16T01:15:33;7.30;;;4.83;;
1048;SDS011;513;51.444;7.196;2022-08-16T01:18:03;5.63;;;4.53;;
1048;SDS011;513;51.444;7.196;2022-08-16T01:20:33;5.30;;;4.23;;
1048;SDS011;513;51.444;7.196;2022-08-16T01:23:04;5.90;;;4.73;;
1048;SDS011;513;51.444;7.196;2022-08-16T01:25:38;6.43;;;4.63;;
1048;SDS011;513;51.444;7.196;2022-08-16T01:28:10;5.77;;;4.70;;
1048;SDS011;513;51.444;7.196;2022-08-16T01:30:41;5.80;;;4.70;;
1048;SDS011;513;51.444;7.196;2022-08-16T01:33:11;11.40;;;4.63;;
1048;SDS011;513;51.444;7.196;2022-08-16T01:35:38;6.67;;;4.37;;
1048;SDS011;513;51.444;7.196;2022-08-16T01:38:14;6.80;;;4.90;;
1048;SDS011;513;51.444;7.196;2022-08-16T01:40:44;5.40;;;4.90;;
1048;SDS011;513;51.444;7.196;2022-08-16T01:43:11;8.77;;;4.70;;
1048;SDS011;513;51.444;7.196;2022-08-16T01:45:38;6.07;;;4.70;;
1048;SDS011;513;51.444;7.196;2022-08-16T01:48:05;5.63;;;4.60;;
1048;SDS011;513;51.444;7.196;2022-08-16T01:50:31;5.60;;;4.43;;
1048;SDS011;513;51.444;7.196;2022-08-16T01:52:59;6.07;;;5.07;;
1048;SDS011;513;51.444;7.196;2022-08-16T01:55:26;5.33;;;4.07;;
1048;SDS011;513;51.444;7.196;2022-08-16T01:57:54;5.73;;;4.50;;
1048;SDS011;513;51.444;7.196;2022-08-16T02:00:21;6.23;;;4.53;;
1048;SDS011;513;51.444;7.196;2022-08-16T02:02:49;5.10;;;4.50;;
1048;SDS011;513;51.444;7.196;2022-08-16T02:05:15;5.50;;;4.87;;
1048;SDS011;513;51.444;7.196;2022-08-16T02:07:42;6.23;;;4.90;;
1048;SDS011;513;51.444;7.196;2022-08-16T02:10:10;5.17;;;4.47;;
1048;SDS011;513;51.444;7.196;2022-08-16T02:12:37;5.00;;;4.20;;
1048;SDS011;513;51.444;7.196;2022-08-16T02:15:06;7.50;;;4.63;;
1048;SDS011;513;51.444;7.196;2022-08-16T02:17:33;7.23;;;4.90;;
1048;SDS011;513;51.444;7.196;2022-08-16T02:20:00;6.10;;;4.80;;
1048;SDS011;513;51.444;7.196;2022-08-16T02:22:27;5.20;;;4.70;;
1048;SDS011;513;51.444;7.196;2022-08-16T02:24:54;6.47;;;4.70;;
1048;SDS011;513;51.444;7.196;2022-08-16T02:27:21;5.17;;;4.60;;
1048;SDS011;513;51.444;7.196;2022-08-16T02:29:48;5.60;;;5.00;;
1048;SDS011;513;51.444;7.196;2022-08-16T02:32:16;5.37;;;4.53;;
1048;SDS011;513;51.444;7.196;2022-08-16T02:34:43;4.77;;;4.33;;
1048;SDS011;513;51.444;7.196;2022-08-16T02:37:10;7.17;;;4.97;;
1048;SDS011;513;51.444;7.196;2022-08-16T02:39:36;5.93;;;4.70;;
1048;SDS011;513;51.444;7.196;2022-08-16T02:42:03;6.63;;;4.50;;
1048;SDS011;513;51.444;7.196;2022-08-16T02:44:31;6.23;;;4.87;;
1048;SDS011;513;51.444;7.196;2022-08-16T02:46:57;6.97;;;4.90;;
1048;SDS011;513;51.444;7.196;2022-08-16T02:49:25;5.23;;;4.47;;
1048;SDS011;513;51.444;7.196;2022-08-16T02:51:52;5.00;;;4.50;;
1048;SDS011;513;51.444;7.196;2022-08-16T02:54:19;6.03;;;4.63;;
1048;SDS011;513;51.444;7.196;2022-08-16T02:56:46;5.53;;;4.93;;
1048;SDS011;513;51.444;7.196;2022-08-16T02:59:12;6.07;;;4.50;;
1048;SDS011;513;51.444;7.196;2022-08-16T03:01:39;6.07;;;4.93;;
1048;SDS011;513;51.444;7.196;2022-08-16T03:04:06;5.87;;;4.80;;
1048;SDS011;513;51.444;7.196;2022-08-16T03:06:34;7.90;;;4.37;;
1048;SDS011;513;51.444;7.196;2022-08-16T03:09:01;5.83;;;4.47;;
1048;SDS011;513;51.444;7.196;2022-08-16T03:11:29;6.57;;;5.40;;
1048;SDS011;513;51.444;7.196;2022-08-16T03:13:56;7.90;;;5.27;;
1048;SDS011;513;51.444;7.196;2022-08-16T03:16:23;5.60;;;5.00;;
1048;SDS011;513;51.444;7.196;2022-08-16T03:18:50;6.63;;;5.20;;
1048;SDS011;513;51.444;7.196;2022-08-16T03:21:17;5.90;;;4.83;;
1048;SDS011;513;51.444;7.196;2022-08-16T03:23:45;6.50;;;5.13;;
1048;SDS011;513;51.444;7.196;2022-08-16T03:26:12;8.30;;;5.00;;
1048;SDS011;513;51.444;7.196;2022-08-16T03:28:39;7.47;;;4.77;;
1048;SDS011;513;51.444;7.196;2022-08-16T03:31:06;6.93;;;5.10;;
1048;SDS011;513;51.444;7.196;2022-08-16T03:33:33;6.40;;;5.40;;
1048;SDS011;513;51.444;7.196;2022-08-16T03:36:01;7.70;;;4.97;;
1048;SDS011;513;51.444;7.196;2022-08-16T03:38:29;7.87;;;5.33;;
1048;SDS011;513;51.444;7.196;2022-08-16T03:40:58;8.97;;;4.90;;
1048;SDS011;513;51.444;7.196;2022-08-16T03:43:26;7.10;;;5.20;;
1048;SDS011;513;51.444;7.196;2022-08-16T03:45:54;8.43;;;5.00;;
1048;SDS011;513;51.444;7.196;2022-08-16T03:48:22;5.97;;;4.80;;
1048;SDS011;513;51.444;7.196;2022-08-16T03:50:51;5.30;;;4.80;;
1048;SDS011;513;51.444;7.196;2022-08-16T03:53:18;7.10;;;5.10;;
1048;SDS011;513;51.444;7.196;2022-08-16T03:55:45;6.07;;;4.97;;
1048;SDS011;513;51.444;7.196;2022-08-16T03:58:13;6.53;;;4.83;;
1048;SDS011;513;51.444;7.196;2022-08-16T04:00:40;10.63;;;7.57;;
1048;SDS011;513;51.444;7.196;2022-08-16T04:03:07;6.70;;;5.53;;
1048;SDS011;513;51.444;7.196;2022-08-16T04:05:34;5.23;;;4.73;;
1048;SDS011;513;51.444;7.196;2022-08-16T04:08:02;5.23;;;4.50;;
1048;SDS011;513;51.444;7.196;2022-08-16T04:10:30;5.70;;;5.10;;
1048;SDS011;513;51.444;7.196;2022-08-16T04:12:57;11.37;;;5.80;;
1048;SDS011;513;51.444;7.196;2022-08-16T04:15:25;5.37;;;4.70;;
1048;SDS011;513;51.444;7.196;2022-08-16T04:17:53;7.33;;;5.07;;
1048;SDS011;513;51.444;7.196;2022-08-16T04:20:20;5.43;;;4.80;;
1048;SDS011;513;51.444;7.196;2022-08-16T04:22:47;7.13;;;5.20;;
1048;SDS011;513;51.444;7.196;2022-08-16T04:25:14;6.67;;;4.60;;
1048;SDS011;513;51.444;7.196;2022-08-16T04:27:41;6.13;;;4.70;;
1048;SDS011;513;51.444;7.196;2022-08-16T04:30:08;7.30;;;5.63;;
1048;SDS011;513;51.444;7.196;2022-08-16T04:32:38;8.73;;;5.30;;
1048;SDS011;513;51.444;7.196;2022-08-16T04:35:06;7.00;;;5.50;;
1048;SDS011;513;51.444;7.196;2022-08-16T04:37:34;6.13;;;5.30;;
1048;SDS011;513;51.444;7.196;2022-08-16T04:40:01;6.10;;;5.30;;
1048;SDS011;513;51.444;7.196;2022-08-16T04:42:28;9.63;;;5.43;;
1048;SDS011;513;51.444;7.196;2022-08-16T04:44:55;5.60;;;5.10;;
1048;SDS011;513;51.444;7.196;2022-08-16T04:47:23;6.00;;;5.17;;
1048;SDS011;513;51.444;7.196;2022-08-16T04:49:54;7.43;;;5.43;;
1048;SDS011;513;51.444;7.196;2022-08-16T04:52:20;9.63;;;5.23;;
1048;SDS011;513;51.444;7.196;2022-08-16T04:54:47;6.27;;;4.93;;
1048;SDS011;513;51.444;7.196;2022-08-16T04:57:14;5.43;;;4.90;;
1048;SDS011;513;51.444;7.196;2022-08-16T04:59:40;5.50;;;4.93;;
1048;SDS011;513;51.444;7.196;2022-08-16T05:02:07;6.20;;;5.17;;
1048;SDS011;513;51.444;7.196;2022-08-16T05:04:34;6.90;;;5.00;;
1048;SDS011;513;51.444;7.196;2022-08-16T05:07:02;5.30;;;4.80;;
1048;SDS011;513;51.444;7.196;2022-08-16T05:09:30;5.80;;;4.90;;
1048;SDS011;513;51.444;7.196;2022-08-16T05:11:56;5.57;;;5.03;;
1048;SDS011;513;51.444;7.196;2022-08-16T05:14:23;5.90;;;4.93;;
1048;SDS011;513;51.444;7.196;2022-08-16T05:16:50;6.57;;;4.57;;
1048;SDS011;513;51.444;7.196;2022-08-16T05:19:17;8.27;;;5.33;;
1048;SDS011;513;51.444;7.196;2022-08-16T05:21:43;5.20;;;4.70;;
1048;SDS011;513;51.444;7.196;2022-08-16T05:24:11;5.00;;;4.50;;
1048;SDS011;513;51.444;7.196;2022-08-16T05:26:38;7.63;;;4.90;;
1048;SDS011;513;51.444;7.196;2022-08-16T05:29:05;7.57;;;5.20;;
1048;SDS011;513;51.444;7.196;2022-08-16T05:31:32;6.13;;;4.60;;
1048;SDS011;513;51.444;7.196;2022-08-16T05:33:59;7.97;;;4.90;;
1048;SDS011;513;51.444;7.196;2022-08-16T05:36:27;5.90;;;5.10;;
1048;SDS011;513;51.444;7.196;2022-08-16T05:38:54;8.93;;;5.03;;
1048;SDS011;513;51.444;7.196;2022-08-16T05:41:22;7.23;;;5.13;;
1048;SDS011;513;51.444;7.196;2022-08-16T05:43:48;7.80;;;5.10;;
1048;SDS011;513;51.444;7.196;2022-08-16T05:46:15;7.30;;;5.00;;
1048;SDS011;513;51.444;7.196;2022-08-16T05:48:43;5.87;;;4.90;;
1048;SDS011;513;51.444;7.196;2022-08-16T05:51:10;5.37;;;4.50;;
1048;SDS011;513;51.444;7.196;2022-08-16T05:53:37;6.23;;;4.97;;
1048;SDS011;513;51.444;7.196;2022-08-16T05:56:04;7.63;;;5.10;;
1048;SDS011;513;51.444;7.196;2022-08-16T05:58:32;6.10;;;5.23;;
1048;SDS011;513;51.444;7.196;2022-08-16T06:00:59;5.57;;;4.47;;
1048;SDS011;513;51.444;7.196;2022-08-16T06:03:25;7.37;;;4.60;;
1048;SDS011;513;51.444;7.196;2022-08-16T06:05:52;4.87;;;4.27;;
1048;SDS011;513;51.444;7.196;2022-08-16T06:08:19;5.17;;;4.23;;
1048;SDS011;513;51.444;7.196;2022-08-16T06:10:45;6.40;;;4.33;;
1048;SDS011;513;51.444;7.196;2022-08-16T06:13:12;4.73;;;4.17;;
1048;SDS011;513;51.444;7.196;2022-08-16T06:15:40;5.93;;;4.17;;
1048;SDS011;513;51.444;7.196;2022-08-16T06:18:06;4.97;;;4.07;;
1048;SDS011;513;51.444;7.196;2022-08-16T06:20:33;5.77;;;3.97;;
1048;SDS011;513;51.444;7.196;2022-08-16T06:23:00;5.23;;;3.93;;
1048;SDS011;513;51.444;7.196;2022-08-16T06:25:27;6.50;;;4.07;;
1048;SDS011;513;51.444;7.196;2022-08-16T06:27:54;4.97;;;4.47;;
1048;SDS011;513;51.444;7.196;2022-08-16T06:30:20;5.77;;;4.67;;
1048;SDS011;513;51.444;7.196;2022-08-16T06:32:50;6.77;;;4.47;;
1048;SDS011;513;51.444;7.196;2022-08-16T06:35:16;5.90;;;3.70;;
1048;SDS011;513;51.444;7.196;2022-08-16T06:37:43;6.70;;;4.57;;
1048;SDS011;513;51.444;7.196;2022-08-16T06:40:10;6.10;;;4.37;;
1048;SDS011;513;51.444;7.196;2022-08-16T06:42:37;4.87;;;4.20;;
1048;SDS011;513;51.444;7.196;2022-08-16T06:45:04;6.27;;;4.53;;
1048;SDS011;513;51.444;7.196;2022-08-16T06:47:31;5.20;;;4.23;;
1048;SDS011;513;51.444;7.196;2022-08-16T06:49:59;7.40;;;4.43;;
1048;SDS011;513;51.444;7.196;2022-08-16T06:52:26;5.90;;;4.33;;
1048;SDS011;513;51.444;7.196;2022-08-16T06:55:00;5.47;;;4.40;;
1048;SDS011;513;51.444;7.196;2022-08-16T06:57:27;5.43;;;4.00;;
1048;SDS011;513;51.444;7.196;2022-08-16T06:59:54;5.77;;;4.67;;
1048;SDS011;513;51.444;7.196;2022-08-16T07:02:21;6.10;;;4.20;;
1048;SDS011;513;51.444;7.196;2022-08-16T07:04:47;7.57;;;4.60;;
1048;SDS011;513;51.444;7.196;2022-08-16T07:07:15;7.40;;;4.40;;
1048;SDS011;513;51.444;7.196;2022-08-16T07:09:43;6.37;;;4.60;;
1048;SDS011;513;51.444;7.196;2022-08-16T07:12:10;8.27;;;4.60;;
1048;SDS011;513;51.444;7.196;2022-08-16T07:14:36;7.73;;;4.60;;
1048;SDS011;513;51.444;7.196;2022-08-16T07:17:03;8.10;;;5.30;;
1048;SDS011;513;51.444;7.196;2022-08-16T07:19:31;7.67;;;5.13;;
1048;SDS011;513;51.444;7.196;2022-08-16T07:21:58;6.27;;;5.20;;
1048;SDS011;513;51.444;7.196;2022-08-16T07:24:27;6.73;;;5.30;;
1048;SDS011;513;51.444;7.196;2022-08-16T07:26:54;8.50;;;5.23;;
1048;SDS011;513;51.444;7.196;2022-08-16T07:29:21;7.10;;;4.97;;
1048;SDS011;513;51.444;7.196;2022-08-16T07:31:48;7.60;;;4.70;;
1048;SDS011;513;51.444;7.196;2022-08-16T07:34:14;7.33;;;4.97;;
1048;SDS011;513;51.444;7.196;2022-08-16T07:36:42;8.00;;;5.03;;
1048;SDS011;513;51.444;7.196;2022-08-16T07:39:09;8.17;;;5.00;;
1048;SDS011;513;51.444;7.196;2022-08-16T07:41:37;8.00;;;5.10;;
1048;SDS011;513;51.444;7.196;2022-08-16T07:44:05;9.60;;;4.77;;
1048;SDS011;513;51.444;7.196;2022-08-16T07:46:32;8.70;;;4.73;;
1048;SDS011;513;51.444;7.196;2022-08-16T07:48:59;8.23;;;4.77;;
1048;SDS011;513;51.444;7.196;2022-08-16T07:51:25;8.83;;;5.47;;
1048;SDS011;513;51.444;7.196;2022-08-16T07:53:55;7.10;;;5.10;;
1048;SDS011;513;51.444;7.196;2022-08-16T07:56:22;5.97;;;5.20;;
1048;SDS011;513;51.444;7.196;2022-08-16T07:58:50;8.33;;;5.40;;
1048;SDS011;513;51.444;7.196;2022-08-16T08:01:17;8.20;;;4.77;;
1048;SDS011;513;51.444;7.196;2022-08-16T08:03:43;4.67;;;4.27;;
1048;SDS011;513;51.444;7.196;2022-08-16T08:06:11;6.70;;;4.77;;
1048;SDS011;513;51.444;7.196;2022-08-16T08:08:37;5.50;;;4.80;;
1048;SDS011;513;51.444;7.196;2022-08-16T08:11:05;7.70;;;5.23;;
1048;SDS011;513;51.444;7.196;2022-08-16T08:13:32;6.73;;;5.13;;
1048;SDS011;513;51.444;7.196;2022-08-16T08:16:00;8.57;;;4.97;;
1048;SDS011;513;51.444;7.196;2022-08-16T08:18:27;9.80;;;4.90;;
1048;SDS011;513;51.444;7.196;2022-08-16T08:20:54;8.53;;;4.93;;
1048;SDS011;513;51.444;7.196;2022-08-16T08:23:21;5.83;;;5.00;;
1048;SDS011;513;51.444;7.196;2022-08-16T08:25:48;6.17;;;5.03;;
1048;SDS011;513;51.444;7.196;2022-08-16T08:28:15;8.00;;;5.33;;
1048;SDS011;513;51.444;7.196;2022-08-16T08:30:43;6.83;;;4.77;;
1048;SDS011;513;51.444;7.196;2022-08-16T08:33:11;6.77;;;5.33;;
1048;SDS011;513;51.444;7.196;2022-08-16T08:35:38;7.43;;;5.03;;
1048;SDS011;513;51.444;7.196;2022-08-16T08:38:05;5.83;;;5.33;;
1048;SDS011;513;51.444;7.196;2022-08-16T08:40:33;8.33;;;4.67;;
1048;SDS011;513;51.444;7.196;2022-08-16T08:43:00;8.10;;;5.60;;
1048;SDS011;513;51.444;7.196;2022-08-16T08:45:27;8.07;;;5.40;;
1048;SDS011;513;51.444;7.196;2022-08-16T08:47:54;7.00;;;5.37;;
1048;SDS011;513;51.444;7.196;2022-08-16T08:50:23;10.83;;;5.87;;
1048;SDS011;513;51.444;7.196;2022-08-16T08:52:49;9.07;;;5.67;;
1048;SDS011;513;51.444;7.196;2022-08-16T08:55:17;6.77;;;5.23;;
1048;SDS011;513;51.444;7.196;2022-08-16T08:57:47;6.30;;;5.17;;
1048;SDS011;513;51.444;7.196;2022-08-16T09:00:17;7.40;;;5.23;;
1048;SDS011;513;51.444;7.196;2022-08-16T09:02:47;8.40;;;5.40;;
1048;SDS011;513;51.444;7.196;2022-08-16T09:05:15;8.23;;;4.73;;
1048;SDS011;513;51.444;7.196;2022-08-16T09:07:44;7.87;;;5.33;;
1048;SDS011;513;51.444;7.196;2022-08-16T09:10:11;6.37;;;5.27;;
1048;SDS011;513;51.444;7.196;2022-08-16T09:12:38;10.37;;;5.53;;
1048;SDS011;513;51.444;7.196;2022-08-16T09:15:06;7.63;;;5.53;;
1048;SDS011;513;51.444;7.196;2022-08-16T09:17:34;9.30;;;5.63;;
1048;SDS011;513;51.444;7.196;2022-08-16T09:20:01;12.43;;;5.20;;
1048;SDS011;513;51.444;7.196;2022-08-16T09:22:29;5.67;;;5.00;;
1048;SDS011;513;51.444;7.196;2022-08-16T09:24:57;9.40;;;5.70;;
1048;SDS011;513;51.444;7.196;2022-08-16T09:27:23;9.80;;;5.77;;
1048;SDS011;513;51.444;7.196;2022-08-16T09:29:52;8.13;;;5.10;;
1048;SDS011;513;51.444;7.196;2022-08-16T09:32:19;7.37;;;5.67;;
1048;SDS011;513;51.444;7.196;2022-08-16T09:34:46;10.53;;;5.10;;
1048;SDS011;513;51.444;7.196;2022-08-16T09:37:13;6.50;;;4.93;;
1048;SDS011;513;51.444;7.196;2022-08-16T09:39:40;5.90;;;5.00;;
1048;SDS011;513;51.444;7.196;2022-08-16T09:42:10;10.77;;;5.73;;
1048;SDS011;513;51.444;7.196;2022-08-16T09:44:39;5.63;;;4.70;;
1048;SDS011;513;51.444;7.196;2022-08-16T09:47:06;8.30;;;5.43;;
1048;SDS011;513;51.444;7.196;2022-08-16T09:49:33;6.57;;;5.03;;
1048;SDS011;513;51.444;7.196;2022-08-16T09:51:59;7.67;;;5.50;;
1048;SDS011;513;51.444;7.196;2022-08-16T09:54:26;7.90;;;5.27;;
1048;SDS011;513;51.444;7.196;2022-08-16T09:56:53;7.60;;;5.57;;
1048;SDS011;513;51.444;7.196;2022-08-16T09:59:22;5.67;;;4.90;;
1048;SDS011;513;51.444;7.196;2022-08-16T10:01:50;10.00;;;5.13;;
1048;SDS011;513;51.444;7.196;2022-08-16T10:04:18;5.53;;;5.00;;
1048;SDS011;513;51.444;7.196;2022-08-16T10:06:45;8.37;;;5.07;;
1048;SDS011;513;51.444;7.196;2022-08-16T10:09:13;7.83;;;4.53;;
1048;SDS011;513;51.444;7.196;2022-08-16T10:11:40;9.57;;;5.20;;
1048;SDS011;513;51.444;7.196;2022-08-16T10:14:26;11.00;;;5.13;;
1048;SDS011;513;51.444;7.196;2022-08-16T10:16:54;7.23;;;4.73;;
1048;SDS011;513;51.444;7.196;2022-08-16T10:19:22;7.87;;;5.40;;
1048;SDS011;513;51.444;7.196;2022-08-16T10:21:49;5.77;;;4.83;;
1048;SDS011;513;51.444;7.196;2022-08-16T10:24:16;7.93;;;4.97;;
1048;SDS011;513;51.444;7.196;2022-08-16T10:26:43;5.80;;;4.90;;
1048;SDS011;513;51.444;7.196;2022-08-16T10:29:11;10.07;;;4.87;;
1048;SDS011;513;51.444;7.196;2022-08-16T10:31:39;5.30;;;4.80;;
1048;SDS011;513;51.444;7.196;2022-08-16T10:34:06;7.43;;;4.80;;
1048;SDS011;513;51.444;7.196;2022-08-16T10:36:33;8.63;;;5.20;;
1048;SDS011;513;51.444;7.196;2022-08-16T10:39:00;6.33;;;4.60;;
1048;SDS011;513;51.444;7.196;2022-08-16T10:41:27;8.00;;;5.27;;
1048;SDS011;513;51.444;7.196;2022-08-16T10:43:54;8.33;;;5.63;;
1048;SDS011;513;51.444;7.196;2022-08-16T10:46:20;10.13;;;5.30;;
1048;SDS011;513;51.444;7.196;2022-08-16T10:48:49;9.97;;;5.40;;
1048;SDS011;513;51.444;7.196;2022-08-16T10:51:16;6.97;;;5.03;;
1048;SDS011;513;51.444;7.196;2022-08-16T10:53:43;5.50;;;4.53;;
1048;SDS011;513;51.444;7.196;2022-08-16T10:56:10;4.83;;;4.27;;
1048;SDS011;513;51.444;7.196;2022-08-16T10:58:38;7.97;;;5.60;;
1048;SDS011;513;51.444;7.196;2022-08-16T11:01:05;5.40;;;4.77;;
1048;SDS011;513;51.444;7.196;2022-08-16T11:03:33;9.57;;;4.90;;
1048;SDS011;513;51.444;7.196;2022-08-16T11:06:02;7.37;;;4.60;;
1048;SDS011;513;51.444;7.196;2022-08-16T11:08:30;8.17;;;5.60;;
1048;SDS011;513;51.444;7.196;2022-08-16T11:10:57;5.57;;;4.43;;
1048;SDS011;513;51.444;7.196;2022-08-16T11:13:25;5.20;;;4.07;;
1048;SDS011;513;51.444;7.196;2022-08-16T11:15:52;7.70;;;4.47;;
1048;SDS011;513;51.444;7.196;2022-08-16T11:18:21;8.50;;;5.00;;
1048;SDS011;513;51.444;7.196;2022-08-16T11:20:48;6.83;;;4.27;;
1048;SDS011;513;51.444;7.196;2022-08-16T11:23:16;5.33;;;4.10;;
1048;SDS011;513;51.444;7.196;2022-08-16T11:25:42;7.70;;;4.27;;
1048;SDS011;513;51.444;7.196;2022-08-16T11:28:09;8.00;;;4.00;;
1048;SDS011;513;51.444;7.196;2022-08-16T11:30:36;6.90;;;4.23;;
1048;SDS011;513;51.444;7.196;2022-08-16T11:33:03;4.87;;;3.70;;
1048;SDS011;513;51.444;7.196;2022-08-16T11:35:31;6.27;;;4.10;;
1048;SDS011;513;51.444;7.196;2022-08-16T11:37:58;5.77;;;3.90;;
1048;SDS011;513;51.444;7.196;2022-08-16T11:40:28;5.90;;;4.07;;
1048;SDS011;513;51.444;7.196;2022-08-16T11:42:56;11.80;;;4.13;;
1048;SDS011;513;51.444;7.196;2022-08-16T11:45:23;7.22;;;3.28;;
1048;SDS011;513;51.444;7.196;2022-08-16T11:47:50;6.70;;;3.97;;
1048;SDS011;513;51.444;7.196;2022-08-16T11:50:18;5.85;;;3.90;;
1048;SDS011;513;51.444;7.196;2022-08-16T11:52:45;5.13;;;3.50;;
1048;SDS011;513;51.444;7.196;2022-08-16T11:55:12;6.50;;;3.70;;
1048;SDS011;513;51.444;7.196;2022-08-16T11:57:43;9.57;;;3.70;;
1048;SDS011;513;51.444;7.196;2022-08-16T12:00:13;7.83;;;3.90;;
1048;SDS011;513;51.444;7.196;2022-08-16T12:02:41;6.47;;;4.23;;
1048;SDS011;513;51.444;7.196;2022-08-16T12:05:09;6.47;;;4.13;;
1048;SDS011;513;51.444;7.196;2022-08-16T12:07:38;5.80;;;4.10;;
1048;SDS011;513;51.444;7.196;2022-08-16T12:10:06;4.10;;;3.63;;
1048;SDS011;513;51.444;7.196;2022-08-16T12:12:35;8.50;;;3.97;;
1048;SDS011;513;51.444;7.196;2022-08-16T12:15:03;9.30;;;4.03;;
1048;SDS011;513;51.444;7.196;2022-08-16T12:17:31;6.07;;;3.60;;
1048;SDS011;513;51.444;7.196;2022-08-16T12:19:58;7.73;;;4.20;;
1048;SDS011;513;51.444;7.196;2022-08-16T12:22:25;7.63;;;3.67;;
1048;SDS011;513;51.444;7.196;2022-08-16T12:24:51;8.87;;;3.73;;
1048;SDS011;513;51.444;7.196;2022-08-16T12:27:19;10.52;;;4.18;;
1048;SDS011;513;51.444;7.196;2022-08-16T12:29:46;5.03;;;3.72;;
1048;SDS011;513;51.444;7.196;2022-08-16T12:32:16;5.85;;;3.50;;
1048;SDS011;513;51.444;7.196;2022-08-16T12:34:44;9.70;;;4.05;;
1048;SDS011;513;51.444;7.196;2022-08-16T12:37:11;6.17;;;4.30;;
1048;SDS011;513;51.444;7.196;2022-08-16T12:39:38;5.37;;;4.20;;
1048;SDS011;513;51.444;7.196;2022-08-16T12:42:05;5.20;;;3.93;;
1048;SDS011;513;51.444;7.196;2022-08-16T12:44:33;7.40;;;3.80;;
1048;SDS011;513;51.444;7.196;2022-08-16T12:47:00;4.97;;;3.95;;
1048;SDS011;513;51.444;7.196;2022-08-16T12:49:47;5.83;;;3.67;;
1048;SDS011;513;51.444;7.196;2022-08-16T12:52:14;9.32;;;3.90;;
1048;SDS011;513;51.444;7.196;2022-08-16T12:54:40;8.00;;;4.20;;
1048;SDS011;513;51.444;7.196;2022-08-16T12:57:07;6.30;;;3.85;;
1048;SDS011;513;51.444;7.196;2022-08-16T12:59:34;7.07;;;3.85;;
1048;SDS011;513;51.444;7.196;2022-08-16T13:02:02;4.85;;;4.20;;
1048;SDS011;513;51.444;7.196;2022-08-16T13:04:30;6.32;;;4.43;;
1048;SDS011;513;51.444;7.196;2022-08-16T13:07:01;4.93;;;4.25;;
1048;SDS011;513;51.444;7.196;2022-08-16T13:09:29;7.43;;;4.70;;
1048;SDS011;513;51.444;7.196;2022-08-16T13:11:58;5.03;;;3.80;;
1048;SDS011;513;51.444;7.196;2022-08-16T13:14:30;4.20;;;3.75;;
1048;SDS011;513;51.444;7.196;2022-08-16T13:16:58;6.28;;;3.58;;
1048;SDS011;513;51.444;7.196;2022-08-16T13:19:26;4.32;;;3.92;;
1048;SDS011;513;51.444;7.196;2022-08-16T13:21:53;5.40;;;3.67;;
1048;SDS011;513;51.444;7.196;2022-08-16T13:24:21;5.25;;;3.80;;
1048;SDS011;513;51.444;7.196;2022-08-16T13:26:48;4.72;;;4.22;;
1048;SDS011;513;51.444;7.196;2022-08-16T13:29:15;6.20;;;3.87;;
1048;SDS011;513;51.444;7.196;2022-08-16T13:31:42;6.35;;;3.95;;
1048;SDS011;513;51.444;7.196;2022-08-16T13:34:08;4.53;;;3.58;;
1048;SDS011;513;51.444;7.196;2022-08-16T13:36:35;5.15;;;3.85;;
1048;SDS011;513;51.444;7.196;2022-08-16T13:39:04;5.53;;;3.90;;
1048;SDS011;513;51.444;7.196;2022-08-16T13:41:32;5.18;;;3.80;;
1048;SDS011;513;51.444;7.196;2022-08-16T13:43:59;6.70;;;4.13;;
1048;SDS011;513;51.444;7.196;2022-08-16T13:46:26;6.25;;;4.00;;
1048;SDS011;513;51.444;7.196;2022-08-16T13:48:54;4.45;;;3.97;;
1048;SDS011;513;51.444;7.196;2022-08-16T13:51:21;5.80;;;4.60;;
1048;SDS011;513;51.444;7.196;2022-08-16T13:53:49;4.90;;;3.97;;
1048;SDS011;513;51.444;7.196;2022-08-16T13:56:18;8.65;;;5.60;;
1048;SDS011;513;51.444;7.196;2022-08-16T13:58:47;7.80;;;4.22;;
1048;SDS011;513;51.444;7.196;2022-08-16T14:01:14;7.20;;;5.10;;
1048;SDS011;513;51.444;7.196;2022-08-16T14:03:41;5.05;;;4.07;;
1048;SDS011;513;51.444;7.196;2022-08-16T14:06:09;7.82;;;4.53;;
1048;SDS011;513;51.444;7.196;2022-08-16T14:08:37;7.88;;;4.95;;
1048;SDS011;513;51.444;7.196;2022-08-16T14:11:04;8.38;;;4.85;;
1048;SDS011;513;51.444;7.196;2022-08-16T14:13:32;8.20;;;4.32;;
1048;SDS011;513;51.444;7.196;2022-08-16T14:16:00;7.28;;;3.92;;
1048;SDS011;513;51.444;7.196;2022-08-16T14:18:27;10.05;;;3.97;;
1048;SDS011;513;51.444;7.196;2022-08-16T14:20:54;7.68;;;4.35;;
1048;SDS011;513;51.444;7.196;2022-08-16T14:23:22;7.63;;;4.38;;
1048;SDS011;513;51.444;7.196;2022-08-16T14:25:49;6.32;;;4.40;;
1048;SDS011;513;51.444;7.196;2022-08-16T14:28:16;9.85;;;4.40;;
1048;SDS011;513;51.444;7.196;2022-08-16T14:30:42;8.27;;;4.45;;
1048;SDS011;513;51.444;7.196;2022-08-16T14:33:11;7.50;;;4.60;;
1048;SDS011;513;51.444;7.196;2022-08-16T14:35:38;8.25;;;4.45;;
1048;SDS011;513;51.444;7.196;2022-08-16T14:38:04;6.43;;;4.57;;
1048;SDS011;513;51.444;7.196;2022-08-16T14:40:32;6.60;;;4.10;;
1048;SDS011;513;51.444;7.196;2022-08-16T14:42:59;6.70;;;4.47;;
1048;SDS011;513;51.444;7.196;2022-08-16T14:45:27;8.57;;;5.07;;
1048;SDS011;513;51.444;7.196;2022-08-16T14:47:54;8.75;;;4.68;;
1048;SDS011;513;51.444;7.196;2022-08-16T14:50:23;7.87;;;4.23;;
1048;SDS011;513;51.444;7.196;2022-08-16T14:52:52;5.20;;;4.13;;
1048;SDS011;513;51.444;7.196;2022-08-16T14:55:20;6.10;;;4.68;;
1048;SDS011;513;51.444;7.196;2022-08-16T14:57:48;10.63;;;5.53;;
1048;SDS011;513;51.444;7.196;2022-08-16T15:00:14;7.20;;;4.72;;
1048;SDS011;513;51.444;7.196;2022-08-16T15:02:42;6.30;;;4.32;;
1048;SDS011;513;51.444;7.196;2022-08-16T15:05:10;8.73;;;4.75;;
1048;SDS011;513;51.444;7.196;2022-08-16T15:07:39;5.90;;;4.10;;
1048;SDS011;513;51.444;7.196;2022-08-16T15:10:06;6.55;;;4.60;;
1048;SDS011;513;51.444;7.196;2022-08-16T15:12:33;5.43;;;4.35;;
1048;SDS011;513;51.444;7.196;2022-08-16T15:15:00;6.07;;;4.53;;
1048;SDS011;513;51.444;7.196;2022-08-16T15:17:30;8.40;;;4.63;;
1048;SDS011;513;51.444;7.196;2022-08-16T15:19:57;6.37;;;4.87;;
1048;SDS011;513;51.444;7.196;2022-08-16T15:22:25;8.73;;;4.30;;
1048;SDS011;513;51.444;7.196;2022-08-16T15:24:56;5.43;;;4.30;;
1048;SDS011;513;51.444;7.196;2022-08-16T15:27:24;7.60;;;4.27;;
1048;SDS011;513;51.444;7.196;2022-08-16T15:29:52;8.43;;;4.60;;
1048;SDS011;513;51.444;7.196;2022-08-16T15:32:19;7.07;;;4.20;;